Time;durP1;ratioP1;P1;durP2;ratioP2;P2;SDS_P1;SDS_P2;PMS_P1;PMS_P2;Temp;Humidity;BMP_temperature;BMP_pressure;BME280_temperature;BME280_humidity;BME280_pressure;Samples;Min_cycle;Max_cycle;Signal;HPM_P1;HPM_P2
2024/03/01 00:02:18;;;;;;;35.30;8.98;;;;;;;29.27;70.53;101097.53;5041652;28;65949;-31
2024/03/01 00:04:49;;;;;;;18.65;8.82;;;;;;;29.33;70.61;101102.13;5051405;28;70329;-31
2024/03/01 00:07:19;;;;;;;28.52;10.05;;;;;;;29.35;70.42;101105.47;5046871;28;65649;-31
2024/03/01 00:09:50;;;;;;;26.65;11.40;;;;;;;29.44;70.22;101107.97;5047762;28;70084;-31
2024/03/01 00:12:21;;;;;;;17.77;9.70;;;;;;;29.45;70.08;101109.63;5045575;28;65766;-31
2024/03/01 00:14:51;;;;;;;17.73;9.77;;;;;;;29.45;70.37;101109.63;5048483;28;70333;-30
2024/03/01 00:17:22;;;;;;;22.88;8.77;;;;;;;29.46;71.27;101117.53;5045171;28;66004;-32
2024/03/01 00:19:53;;;;;;;18.67;9.82;;;;;;;29.53;69.58;101122.94;5038939;28;70393;-32
2024/03/01 00:22:23;;;;;;;17.48;10.48;;;;;;;29.52;70.45;101121.28;5046775;28;66802;-31
2024/03/01 00:24:55;;;;;;;20.73;10.57;;;;;;;29.54;71.11;101130.88;5045831;28;70149;-31
2024/03/01 00:27:25;;;;;;;17.10;11.25;;;;;;;29.55;70.97;101129.81;5048069;28;66292;-31
2024/03/01 00:29:56;;;;;;;16.10;10.77;;;;;;;29.57;71.11;101135.03;5048231;28;69554;-31
2024/03/01 00:32:26;;;;;;;24.63;11.57;;;;;;;29.51;70.53;101131.28;5048230;28;66416;-30
2024/03/01 00:34:57;;;;;;;27.70;10.90;;;;;;;29.57;70.57;101135.88;5042047;28;70123;-30
2024/03/01 00:37:27;;;;;;;21.90;10.43;;;;;;;29.58;71.09;101136.69;5044306;28;66692;-31
2024/03/01 00:39:59;;;;;;;16.52;10.07;;;;;;;29.54;71.87;101138.16;5055603;28;69942;-30
2024/03/01 00:42:30;;;;;;;13.00;9.48;;;;;;;29.55;70.44;101137.09;5047412;28;65064;-31
2024/03/01 00:45:00;;;;;;;16.15;9.82;;;;;;;29.57;71.44;101151.25;5046312;28;70299;-31
2024/03/01 00:47:31;;;;;;;20.02;9.05;;;;;;;29.53;71.17;101140.03;5052218;28;66142;-31
2024/03/01 00:50:02;;;;;;;15.82;8.57;;;;;;;29.61;71.01;101142.53;5052384;28;69191;-30
2024/03/01 00:52:33;;;;;;;13.95;8.43;;;;;;;29.72;69.84;101149.22;5042580;28;65489;-30
2024/03/01 00:55:05;;;;;;;12.30;8.90;;;;;;;29.72;69.12;101146.50;5050200;28;70502;-30
2024/03/01 00:57:35;;;;;;;12.02;7.68;;;;;;;29.78;69.23;101151.13;5051677;28;66079;-30
2024/03/01 01:00:08;;;;;;;14.48;9.23;;;;;;;29.80;68.75;101150.91;5052654;28;70370;-31
2024/03/01 01:02:39;;;;;;;10.70;7.75;;;;;;;29.83;68.93;101151.31;5046909;28;66887;-30
2024/03/01 01:05:12;;;;;;;12.40;7.97;;;;;;;29.84;69.02;101153.00;5048665;28;69867;-33
2024/03/01 01:07:42;;;;;;;10.55;8.02;;;;;;;29.88;68.49;101166.09;5052567;28;65591;-30
2024/03/01 01:10:13;;;;;;;9.10;8.20;;;;;;;29.90;68.85;101169.44;5045135;28;70225;-31
2024/03/01 01:12:44;;;;;;;9.30;8.05;;;;;;;29.91;68.37;101162.97;5048543;28;66580;-31
2024/03/01 01:15:14;;;;;;;11.48;7.57;;;;;;;29.94;67.97;101167.97;5053627;28;70456;-29
2024/03/01 01:17:45;;;;;;;9.48;7.47;;;;;;;29.95;67.98;101172.31;5054714;28;65030;-30
2024/03/01 01:20:16;;;;;;;14.30;8.43;;;;;;;29.96;67.75;101182.94;5051976;28;70841;-31
2024/03/01 01:22:47;;;;;;;13.18;8.43;;;;;;;30.01;67.64;101179.63;5050351;28;66533;-32
2024/03/01 01:25:18;;;;;;;8.32;7.53;;;;;;;29.98;67.59;101177.34;5046859;28;70822;-31
2024/03/01 01:27:49;;;;;;;8.50;7.37;;;;;;;30.03;67.74;101180.25;5044743;28;66225;-31
2024/03/01 01:30:19;;;;;;;11.13;7.63;;;;;;;30.05;67.52;101181.69;5055214;28;68986;-31
2024/03/01 01:32:50;;;;;;;12.07;6.95;;;;;;;30.05;67.32;101172.75;5072951;28;66631;-30
2024/03/01 01:35:20;;;;;;;9.32;6.97;;;;;;;30.11;67.29;101188.16;5040977;28;70189;-31
2024/03/01 01:37:51;;;;;;;8.30;7.50;;;;;;;30.12;67.13;101179.00;5027708;28;65136;-29
2024/03/01 01:40:22;;;;;;;8.43;7.63;;;;;;;30.00;67.15;101162.53;5040740;28;69490;-30
2024/03/01 01:42:55;;;;;;;9.95;7.63;;;;;;;30.14;67.56;101174.19;5041286;28;66354;-30
2024/03/01 01:45:26;;;;;;;10.20;6.65;;;;;;;30.18;67.01;101186.28;5049508;28;70076;-31
2024/03/01 01:47:57;;;;;;;8.73;7.22;;;;;;;30.22;66.89;101192.97;5044303;28;66506;-30
2024/03/01 01:50:29;;;;;;;7.28;6.55;;;;;;;30.22;66.89;101192.97;5045969;28;69132;-29
2024/03/01 01:53:02;;;;;;;7.57;6.78;;;;;;;30.12;66.71;101180.88;5046712;28;65741;-30
2024/03/01 01:55:46;;;;;;;14.40;7.30;;;;;;;30.30;67.02;101201.94;5044654;28;69741;-30
2024/03/01 01:58:17;;;;;;;7.22;6.68;;;;;;;30.31;66.76;101200.88;5052279;27;66546;-31
2024/03/01 02:00:49;;;;;;;9.20;6.90;;;;;;;30.32;66.90;101195.28;5049623;28;69074;-30
2024/03/01 02:03:21;;;;;;;13.10;6.93;;;;;;;30.36;66.90;101212.75;5046416;28;65931;-31
2024/03/01 02:05:52;;;;;;;7.22;6.53;;;;;;;30.38;66.90;101207.97;5050418;28;70343;-31
2024/03/01 02:08:23;;;;;;;7.55;6.25;;;;;;;30.43;67.03;101212.75;5047556;28;65752;-31
2024/03/01 02:10:53;;;;;;;12.02;7.35;;;;;;;30.43;66.75;101210.88;5047563;28;70071;-31
2024/03/01 02:13:24;;;;;;;7.40;6.22;;;;;;;30.43;66.88;101201.94;5048031;28;65512;-32
2024/03/01 02:15:55;;;;;;;8.93;7.22;;;;;;;30.50;66.58;101210.84;5049572;28;69315;-31
2024/03/01 02:18:26;;;;;;;7.90;6.88;;;;;;;30.50;66.46;101213.56;5048027;28;65805;-32
2024/03/01 02:21:03;;;;;;;11.03;6.90;;;;;;;30.54;66.93;101217.53;5051127;28;70493;-30
2024/03/01 02:23:34;;;;;;;8.30;7.13;;;;;;;30.58;66.61;101228.75;5051121;28;66326;-31
2024/03/01 02:26:06;;;;;;;7.82;7.10;;;;;;;30.60;66.62;101221.28;5045117;28;70203;-31
2024/03/01 02:28:44;;;;;;;6.60;6.00;;;;;;;30.61;66.69;101221.03;5048082;28;67120;-30
2024/03/01 02:31:15;;;;;;;8.63;6.57;;;;;;;30.61;66.24;101207.50;5045953;28;70611;-32
2024/03/01 02:33:45;;;;;;;7.10;6.40;;;;;;;30.67;66.36;101217.53;5043795;28;66301;-33
2024/03/01 02:36:17;;;;;;;6.97;6.43;;;;;;;30.71;66.35;101217.91;5045875;28;70401;-32
2024/03/01 02:38:48;;;;;;;12.18;6.13;;;;;;;30.72;66.53;101215.00;5043858;28;65832;-31
2024/03/01 02:41:19;;;;;;;6.32;5.88;;;;;;;30.77;66.23;101221.66;5040119;28;69127;-31
2024/03/01 02:43:49;;;;;;;7.90;7.18;;;;;;;30.79;66.29;101214.16;5038119;28;66387;-31
2024/03/01 02:46:22;;;;;;;7.18;6.57;;;;;;;30.84;66.30;101222.50;5040472;28;69555;-32
2024/03/01 02:48:53;;;;;;;7.60;6.50;;;;;;;30.87;66.16;101225.63;5044281;28;66523;-32
2024/03/01 02:51:23;;;;;;;8.18;7.03;;;;;;;30.90;65.75;101216.25;5048259;28;70284;-34
2024/03/01 02:53:54;;;;;;;7.32;6.63;;;;;;;30.92;66.05;101216.84;5048107;28;65401;-35
2024/03/01 02:56:25;;;;;;;6.72;6.20;;;;;;;30.97;65.55;101219.75;5043748;28;69992;-31
2024/03/01 02:58:55;;;;;;;7.47;6.78;;;;;;;30.99;65.53;101212.25;5043106;28;66728;-31
2024/03/01 03:01:26;;;;;;;9.52;6.47;;;;;;;31.03;65.66;101213.47;5051555;28;69598;-31
2024/03/01 03:03:57;;;;;;;10.13;6.93;;;;;;;31.05;65.79;101205.97;5052732;28;65591;-32
2024/03/01 03:06:28;;;;;;;7.30;6.68;;;;;;;31.07;65.58;101201.19;5046444;27;70101;-31
2024/03/01 03:08:58;;;;;;;7.30;6.45;;;;;;;31.11;65.56;101196.97;5042797;28;66806;-31
2024/03/01 03:11:29;;;;;;;7.25;6.65;;;;;;;31.12;65.66;101195.97;5042065;28;71083;-31
2024/03/01 03:14:02;;;;;;;10.27;6.68;;;;;;;31.14;65.33;101191.13;5049141;28;65463;-31
2024/03/01 03:16:32;;;;;;;7.50;6.43;;;;;;;31.22;65.36;101195.50;5046060;28;70568;-32
2024/03/01 03:19:03;;;;;;;8.15;7.40;;;;;;;31.25;65.19;101195.06;5050859;28;65832;-31
2024/03/01 03:21:34;;;;;;;8.05;6.75;;;;;;;31.23;65.06;101172.78;5050366;28;69490;-31
2024/03/01 03:24:05;;;;;;;7.55;6.80;;;;;;;31.31;65.18;101174.38;5048176;28;66194;-31
2024/03/01 03:26:35;;;;;;;8.50;7.10;;;;;;;31.34;65.01;101174.81;5048773;28;69631;-31
2024/03/01 03:29:06;;;;;;;6.95;6.43;;;;;;;31.34;64.79;101171.25;5047199;28;66880;-30
2024/03/01 03:31:37;;;;;;;8.20;7.45;;;;;;;31.36;65.25;101161.06;5051072;28;71872;-31
2024/03/01 03:34:09;;;;;;;7.75;6.70;;;;;;;31.43;64.96;101153.72;5040551;28;66477;-31
2024/03/01 03:36:40;;;;;;;7.93;7.22;;;;;;;31.46;65.08;101156.00;5049075;28;70611;-31
2024/03/01 03:39:11;;;;;;;9.18;7.82;;;;;;;31.48;64.96;101156.63;5047049;28;65461;-31
2024/03/01 03:41:43;;;;;;;8.10;7.22;;;;;;;31.52;64.52;101159.72;5052772;28;70283;-31
2024/03/01 03:44:14;;;;;;;8.27;7.57;;;;;;;31.55;64.59;101160.09;5048465;28;65918;-33
2024/03/01 03:46:47;;;;;;;7.32;6.80;;;;;;;31.45;64.46;101131.81;5059878;28;69946;-31
2024/03/01 03:49:17;;;;;;;9.38;7.88;;;;;;;31.61;64.84;101134.00;5048946;28;65826;-32
2024/03/01 03:51:48;;;;;;;8.05;7.28;;;;;;;31.60;64.77;101130.44;5046231;28;69303;-31
2024/03/01 03:54:20;;;;;;;8.52;7.75;;;;;;;31.66;64.91;101127.91;5046352;28;66341;-32
2024/03/01 03:56:53;;;;;;;9.45;7.93;;;;;;;31.69;64.46;101122.06;5047176;28;70545;-31
2024/03/01 03:59:23;;;;;;;8.20;7.15;;;;;;;31.73;64.82;101117.84;5047043;28;66060;-31
2024/03/01 04:01:54;;;;;;;7.80;7.10;;;;;;;31.74;64.62;101120.34;5053300;28;69279;-32
2024/03/01 04:04:25;;;;;;;8.38;7.57;;;;;;;31.77;64.40;101108.22;5051165;28;65259;-32
2024/03/01 04:06:57;;;;;;;9.02;8.05;;;;;;;31.81;64.67;101112.13;5048248;28;70103;-32
2024/03/01 04:09:28;;;;;;;9.52;7.60;;;;;;;31.85;64.47;101112.53;5042115;28;66009;-30
2024/03/01 04:12:00;;;;;;;8.25;7.40;;;;;;;31.84;64.58;101103.56;5045550;28;70684;-32
2024/03/01 04:14:30;;;;;;;8.65;7.80;;;;;;;31.89;64.58;101106.44;5051902;28;65430;-33
2024/03/01 04:17:02;;;;;;;12.65;8.40;;;;;;;31.92;64.37;101099.78;5047723;28;69575;-30
2024/03/01 04:19:32;;;;;;;10.45;7.47;;;;;;;31.96;64.63;101093.69;5045706;28;66102;-30
2024/03/01 04:22:03;;;;;;;8.80;8.00;;;;;;;31.97;64.29;101089.91;5053877;28;69303;-32
2024/03/01 04:24:34;;;;;;;9.82;7.78;;;;;;;32.01;64.38;101091.16;5048540;28;66840;-31
2024/03/01 04:27:05;;;;;;;8.25;7.65;;;;;;;32.03;64.40;101086.28;5051627;28;70536;-32
2024/03/01 04:29:35;;;;;;;12.27;8.30;;;;;;;32.05;64.49;101078.78;5052126;28;66174;-32
2024/03/01 04:32:09;;;;;;;12.75;8.25;;;;;;;32.09;64.14;101072.91;5049561;28;70517;-32
2024/03/01 04:34:40;;;;;;;9.50;8.70;;;;;;;32.10;64.28;101067.25;5046590;28;65827;-33
2024/03/01 04:37:13;;;;;;;9.35;8.52;;;;;;;32.10;64.50;101047.44;5045989;28;69340;-34
2024/03/01 04:39:46;;;;;;;8.57;7.78;;;;;;;32.15;64.21;101051.13;5050793;28;66364;-31
2024/03/01 04:42:18;;;;;;;8.93;8.13;;;;;;;32.15;64.14;101042.13;5056373;28;70104;-34
2024/03/01 04:44:48;;;;;;;8.95;8.23;;;;;;;32.21;64.12;101038.53;5045176;28;66137;-32
2024/03/01 04:47:19;;;;;;;8.73;7.90;;;;;;;32.25;63.96;101028.88;5045555;28;70655;-31
2024/03/01 04:49:50;;;;;;;9.55;8.05;;;;;;;32.15;63.98;101005.00;5052464;28;66025;-31
2024/03/01 04:52:25;;;;;;;9.27;8.48;;;;;;;32.32;64.25;101023.38;5045380;28;70570;-31
2024/03/01 04:54:56;;;;;;;12.80;8.45;;;;;;;32.21;63.97;100995.13;5047520;28;67043;-31
2024/03/01 04:57:27;;;;;;;11.70;10.05;;;;;;;32.35;63.95;101001.22;5042966;28;70415;-32
2024/03/01 04:59:58;;;;;;;9.07;8.20;;;;;;;32.40;63.89;100996.75;5052119;28;65632;-31
2024/03/01 05:02:28;;;;;;;9.68;8.88;;;;;;;32.43;63.81;100999.03;5045196;28;70298;-31
2024/03/01 05:04:59;;;;;;;9.95;9.02;;;;;;;32.45;63.95;100985.19;5041032;28;67146;-31
2024/03/01 05:07:30;;;;;;;12.10;9.07;;;;;;;32.38;63.81;100969.00;5048201;28;69837;-31
2024/03/01 05:10:08;;;;;;;10.73;9.63;;;;;;;32.51;63.66;100984.31;5053794;28;66531;-32
2024/03/01 05:12:42;;;;;;;10.45;9.55;;;;;;;32.35;63.81;100945.03;5047562;28;70058;-30
2024/03/01 05:15:15;;;;;;;10.82;9.60;;;;;;;32.57;63.86;100977.13;5045731;28;65798;-31
2024/03/01 05:17:46;;;;;;;10.60;9.70;;;;;;;32.61;63.87;100972.91;5041396;28;69547;-31
2024/03/01 05:20:16;;;;;;;11.98;10.20;;;;;;;32.64;63.85;100972.44;5048715;28;66665;-31
2024/03/01 05:22:47;;;;;;;11.25;10.20;;;;;;;32.66;63.79;100962.19;5054376;28;70346;-30
2024/03/01 05:25:19;;;;;;;11.20;10.18;;;;;;;32.62;63.85;100950.13;5049598;28;66019;-31
2024/03/01 05:27:50;;;;;;;10.25;9.48;;;;;;;32.37;63.91;100904.88;5038161;28;70683;-31
2024/03/01 05:30:23;;;;;;;10.68;9.45;;;;;;;32.72;63.64;100953.13;5043597;28;66366;-34
2024/03/01 05:33:14;;;;;;;10.40;9.60;;;;;;;32.75;63.72;100947.22;5044344;28;70047;-30
2024/03/01 05:35:45;;;;;;;11.02;9.88;;;;;;;32.73;63.50;100938.47;5043566;28;66544;-32
2024/03/01 05:38:15;;;;;;;10.57;9.55;;;;;;;32.82;63.55;100936.25;5045306;28;70095;-32
2024/03/01 05:40:47;;;;;;;12.55;9.90;;;;;;;32.85;63.48;100930.38;5052386;28;65581;-32
2024/03/01 05:43:24;;;;;;;11.30;10.20;;;;;;;32.87;63.47;100928.22;5052083;28;70268;-30
2024/03/01 05:45:57;;;;;;;9.77;8.95;;;;;;;32.91;63.45;100924.00;5050695;28;65663;-32
2024/03/01 05:48:28;;;;;;;9.82;8.98;;;;;;;32.93;63.35;100917.28;5047839;28;70410;-31
2024/03/01 05:50:58;;;;;;;10.15;9.35;;;;;;;32.97;63.31;100912.19;5048178;28;66536;-33
2024/03/01 05:53:29;;;;;;;11.13;9.85;;;;;;;32.97;63.65;100897.78;5048685;28;69938;-31
2024/03/01 05:56:00;;;;;;;10.98;9.98;;;;;;;33.02;63.32;100897.94;5052592;28;66485;-31
2024/03/01 05:58:30;;;;;;;11.98;9.45;;;;;;;33.03;63.31;100897.69;5043092;28;70643;-32
2024/03/01 06:01:01;;;;;;;12.27;9.98;;;;;;;33.07;63.24;100896.19;5040484;28;65946;-35
2024/03/01 06:03:32;;;;;;;10.60;9.65;;;;;;;33.11;63.37;100896.53;5038722;28;70621;-32
2024/03/01 06:06:03;;;;;;;11.43;10.07;;;;;;;33.15;63.09;100893.09;5037817;28;67248;-31
2024/03/01 06:08:34;;;;;;;10.85;9.80;;;;;;;33.19;63.26;100881.75;5040034;28;70223;-31
2024/03/01 06:11:05;;;;;;;10.20;9.40;;;;;;;33.07;62.89;100855.41;5041241;28;65494;-31
2024/03/01 06:13:36;;;;;;;10.98;10.27;;;;;;;33.25;62.91;100872.66;5040390;28;70848;-31
2024/03/01 06:16:07;;;;;;;11.32;10.32;;;;;;;33.25;62.67;100865.31;5043799;28;66742;-33
2024/03/01 06:18:38;;;;;;;10.80;9.70;;;;;;;33.28;62.96;100862.13;5045860;28;70449;-31
2024/03/01 06:21:08;;;;;;;14.85;10.52;;;;;;;33.28;62.69;100848.53;5043307;28;65539;-32
2024/03/01 06:23:39;;;;;;;11.77;10.73;;;;;;;33.36;62.64;100853.59;5047489;28;70231;-31
2024/03/01 06:26:10;;;;;;;10.13;9.38;;;;;;;33.37;62.69;100841.66;5051669;28;66296;-30
2024/03/01 06:28:44;;;;;;;11.57;10.55;;;;;;;33.38;63.01;100835.16;5044398;28;69679;-31
2024/03/01 06:31:14;;;;;;;11.15;10.35;;;;;;;33.38;62.69;100824.31;5044836;28;65474;-32
2024/03/01 06:33:45;;;;;;;10.85;9.95;;;;;;;33.44;62.69;100825.22;5043959;28;69036;-33
2024/03/01 06:36:16;;;;;;;10.65;9.65;;;;;;;33.48;62.79;100817.41;5046556;28;66764;-31
2024/03/01 06:38:46;;;;;;;10.48;9.73;;;;;;;33.49;62.99;100811.75;5054671;28;70198;-32
2024/03/01 06:41:17;;;;;;;10.90;9.85;;;;;;;33.49;62.44;100817.19;5053555;28;66516;-32
2024/03/01 06:43:48;;;;;;;11.53;10.33;;;;;;;33.52;62.80;100805.84;5051392;28;70458;-34
2024/03/01 06:46:18;;;;;;;11.27;10.27;;;;;;;33.55;62.77;100810.00;5045397;28;66269;-32
2024/03/01 06:48:49;;;;;;;10.68;9.88;;;;;;;33.58;62.46;100801.34;5044645;28;69804;-32
2024/03/01 06:51:20;;;;;;;11.70;10.70;;;;;;;33.59;62.79;100792.94;5048704;28;66816;-33
2024/03/01 06:53:51;;;;;;;10.50;9.57;;;;;;;33.62;62.75;100783.47;5056632;28;70255;-33
2024/03/01 06:56:22;;;;;;;11.48;10.57;;;;;;;33.64;62.78;100781.34;5061376;28;66484;-31
2024/03/01 06:58:53;;;;;;;10.95;9.93;;;;;;;33.62;62.67;100774.50;5057814;28;69717;-32
2024/03/01 07:01:24;;;;;;;10.57;9.65;;;;;;;33.71;62.40;100770.31;5059030;28;66425;-32
2024/03/01 07:03:55;;;;;;;10.48;9.68;;;;;;;33.74;62.50;100761.66;5053993;28;69609;-31
2024/03/01 07:06:25;;;;;;;10.40;9.70;;;;;;;33.75;62.34;100761.44;5059140;28;66519;-32
2024/03/01 07:08:56;;;;;;;10.48;9.88;;;;;;;33.79;62.70;100748.16;5059622;28;69233;-33
2024/03/01 07:11:28;;;;;;;10.48;9.68;;;;;;;33.77;62.44;100745.69;5056044;28;66598;-34
2024/03/01 07:13:59;;;;;;;11.48;10.48;;;;;;;33.84;62.49;100747.44;5059400;28;70260;-34
2024/03/01 07:16:29;;;;;;;10.95;9.98;;;;;;;33.83;62.40;100737.63;5061027;28;66226;-31
2024/03/01 07:19:00;;;;;;;11.52;10.35;;;;;;;33.83;62.62;100737.63;5058813;28;70465;-33
2024/03/01 07:21:31;;;;;;;11.23;10.40;;;;;;;33.87;62.35;100736.06;5060230;28;65906;-32
2024/03/01 07:24:02;;;;;;;11.23;10.15;;;;;;;33.89;62.30;100733.94;5053582;28;69423;-31
2024/03/01 07:26:33;;;;;;;10.82;9.98;;;;;;;33.93;62.51;100729.63;5046452;28;65998;-31
2024/03/01 07:29:04;;;;;;;10.45;9.55;;;;;;;33.97;62.17;100720.75;5043620;28;70251;-33
2024/03/01 07:31:35;;;;;;;10.88;10.02;;;;;;;33.98;62.10;100722.38;5046742;28;66103;-31
2024/03/01 07:34:06;;;;;;;11.35;10.45;;;;;;;33.98;62.22;100716.94;5043314;28;68900;-32
2024/03/01 07:36:38;;;;;;;11.35;10.45;;;;;;;33.84;62.27;100682.97;5044933;28;65337;-31
2024/03/01 07:39:10;;;;;;;11.73;10.75;;;;;;;34.04;62.53;100723.28;5044128;28;70081;-30
2024/03/01 07:41:41;;;;;;;11.25;10.38;;;;;;;34.07;62.00;100714.66;5043204;28;65592;-31
2024/03/01 07:44:12;;;;;;;11.23;10.20;;;;;;;34.10;61.92;100710.63;5045184;28;70096;-32
2024/03/01 07:46:43;;;;;;;11.05;10.05;;;;;;;34.10;62.13;100707.91;5044954;28;66053;-31
2024/03/01 07:49:17;;;;;;;11.67;10.50;;;;;;;34.14;62.06;100704.47;5047633;28;69940;-31
2024/03/01 07:51:52;;;;;;;11.52;10.63;;;;;;;34.18;62.44;100700.16;5055883;28;66297;-31
2024/03/01 07:54:23;;;;;;;11.20;10.32;;;;;;;34.20;62.05;100698.03;5044386;28;70233;-32
2024/03/01 07:56:53;;;;;;;10.87;9.80;;;;;;;34.21;62.06;100696.97;5060767;28;66937;-32
2024/03/01 07:59:24;;;;;;;10.27;9.57;;;;;;;34.22;62.13;100690.44;5056474;28;69336;-31
2024/03/01 08:01:54;;;;;;;11.43;10.60;;;;;;;34.29;61.72;100703.88;5059785;28;66740;-32
2024/03/01 08:04:27;;;;;;;11.67;10.67;;;;;;;34.32;61.72;100702.56;5048408;28;69395;-32
2024/03/01 08:06:58;;;;;;;11.75;10.63;;;;;;;34.35;62.10;100704.78;5059323;28;66389;-31
2024/03/01 08:09:32;;;;;;;;;;;;;;;34.30;61.24;100701.97;5060357;28;70123;-30
2024/03/01 08:12:08;;;;;;;11.00;10.20;;;;;;;34.44;61.89;100703.31;5046082;28;66078;-32
2024/03/01 08:14:40;;;;;;;11.80;10.75;;;;;;;34.42;61.29;100708.16;5060131;28;69767;-32
2024/03/01 08:17:12;;;;;;;11.20;10.23;;;;;;;34.48;61.37;100709.91;5068681;28;66120;-32
2024/03/01 08:19:47;;;;;;;11.02;10.18;;;;;;;34.32;61.61;100686.22;5040410;28;69882;-31
2024/03/01 08:22:20;;;;;;;11.07;10.05;;;;;;;34.46;61.05;100710.16;5051863;28;67267;-31
2024/03/01 08:24:55;;;;;;;11.95;10.55;;;;;;;34.33;61.28;100688.72;5059383;28;70697;-32
2024/03/01 08:27:31;;;;;;;10.75;10.02;;;;;;;34.37;61.64;100689.03;5057951;28;66266;-35
2024/03/01 08:30:02;;;;;;;11.48;10.57;;;;;;;34.57;61.25;100724.75;5058381;28;70545;-33
2024/03/01 08:32:45;;;;;;;10.00;9.30;;;;;;;34.55;61.20;100720.59;5054082;28;68049;-33
2024/03/01 08:35:21;;;;;;;11.43;10.45;;;;;;;34.28;61.05;100676.91;5056045;28;70578;-31
2024/03/01 08:37:52;;;;;;;11.30;10.45;;;;;;;34.64;61.09;100736.31;5047965;28;66262;-31
2024/03/01 08:40:51;;;;;;;13.80;10.82;;;;;;;34.65;60.85;100732.50;5049593;28;69969;-31
2024/03/01 08:43:23;;;;;;;11.27;10.45;;;;;;;34.69;61.28;100739.13;5055284;28;65786;-32
2024/03/01 08:45:54;;;;;;;10.52;9.43;;;;;;;34.73;61.03;100734.00;5060185;28;70708;-31
2024/03/01 08:48:25;;;;;;;10.73;9.87;;;;;;;34.72;61.16;100735.09;5045452;28;65702;-31
2024/03/01 08:50:55;;;;;;;10.25;9.65;;;;;;;34.72;60.92;100742.44;5042354;28;70414;-32
2024/03/01 08:53:42;;;;;;;11.20;10.40;;;;;;;34.69;61.22;100743.75;5041871;28;65799;-30
2024/03/01 08:56:23;;;;;;;10.73;9.95;;;;;;;34.58;61.21;100715.53;5041375;28;69505;-31
2024/03/01 08:58:54;;;;;;;11.20;10.32;;;;;;;34.74;61.07;100734.81;5042792;28;65774;-31
2024/03/01 09:01:48;;;;;;;10.05;9.20;;;;;;;34.64;60.96;100735.50;5044246;28;70837;-30
2024/03/01 09:04:29;;;;;;;12.35;10.80;;;;;;;34.67;61.00;100724.91;5045042;28;66342;-31
2024/03/01 09:07:12;;;;;;;10.75;9.85;;;;;;;34.75;60.69;100747.38;5043915;28;69504;-32
2024/03/01 09:09:43;;;;;;;10.95;10.20;;;;;;;34.72;61.09;100737.81;5053880;28;65770;-33
2024/03/01 09:12:23;;;;;;;;;;;;;;;34.62;60.65;100743.91;5056328;28;68808;-32
2024/03/01 09:15:00;;;;;;;10.75;9.85;;;;;;;34.57;60.78;100723.94;5046313;28;66857;-31
2024/03/01 09:17:32;;;;;;;10.23;9.52;;;;;;;34.78;61.04;100755.88;5045440;28;69075;-30
2024/03/01 09:20:26;;;;;;;12.98;11.65;;;;;;;34.64;62.00;100752.66;5037908;28;66550;-32
2024/03/01 09:22:56;;;;;;;12.68;11.45;;;;;;;34.61;61.93;100757.81;5034878;28;69952;-32
2024/03/01 09:25:49;;;;;;;23.15;12.15;;;;;;;34.46;62.50;100756.47;5045388;28;66473;-34
2024/03/01 09:28:21;;;;;;;13.00;11.93;;;;;;;34.48;62.85;100765.19;5045428;28;69912;-31
2024/03/01 09:30:54;;;;;;;13.13;11.95;;;;;;;34.28;62.58;100736.81;5048482;28;66363;-32
2024/03/01 09:33:25;;;;;;;12.85;11.63;;;;;;;34.42;62.94;100770.81;5052233;28;69221;-32
2024/03/01 09:35:57;;;;;;;15.50;11.07;;;;;;;34.43;62.72;100769.72;5052136;28;65780;-32
2024/03/01 09:38:27;;;;;;;13.30;11.85;;;;;;;34.43;63.01;100772.44;5062848;27;69742;-31
2024/03/01 09:41:45;;;;;;;12.30;11.23;;;;;;;34.33;62.96;100766.84;5045683;28;66250;-31
2024/03/01 09:44:34;;;;;;;14.43;12.00;;;;;;;34.39;63.10;100766.69;5041298;28;70180;-32
2024/03/01 09:47:11;;;;;;;11.90;10.95;;;;;;;34.29;63.35;100763.78;5052284;28;65921;-32
2024/03/01 09:50:11;;;;;;;14.02;11.10;;;;;;;34.25;63.58;100777.06;5052343;28;70109;-32
2024/03/01 09:53:04;;;;;;;13.18;11.38;;;;;;;34.28;63.41;100777.66;5046389;28;66126;-32
2024/03/01 09:56:11;;;;;;;13.02;11.73;;;;;;;34.28;63.71;100783.09;5047071;28;70384;-32
2024/03/01 09:59:12;;;;;;;12.43;11.20;;;;;;;34.25;63.70;100782.50;5041008;28;66422;-32
2024/03/01 10:01:50;;;;;;;13.10;11.52;;;;;;;34.25;63.27;100793.41;5044129;28;70634;-33
2024/03/01 10:05:07;;;;;;;14.20;10.80;;;;;;;34.17;63.80;100787.53;5051851;28;66328;-32
2024/03/01 10:07:46;;;;;;;16.95;11.50;;;;;;;34.02;63.76;100777.19;5039880;28;69516;-32
2024/03/01 10:10:25;;;;;;;16.83;11.10;;;;;;;34.22;63.33;100812.94;5048488;28;66089;-32
2024/03/01 10:13:09;;;;;;;18.45;10.65;;;;;;;34.00;63.70;100785.56;5052947;28;70213;-32
2024/03/01 10:15:45;;;;;;;12.10;11.02;;;;;;;34.01;63.46;100783.66;5043946;28;66549;-33
2024/03/01 10:18:48;;;;;;;11.90;10.75;;;;;;;34.13;64.04;100810.84;5044278;28;70054;-32
2024/03/01 10:21:27;;;;;;;13.93;11.13;;;;;;;34.18;63.69;100814.50;5045144;28;66055;-33
2024/03/01 10:24:22;;;;;;;13.27;10.10;;;;;;;34.14;63.73;100818.78;5048294;28;70161;-31
2024/03/01 10:27:08;;;;;;;15.77;10.63;;;;;;;34.06;63.94;100808.28;5045726;28;66543;-32
2024/03/01 10:29:39;;;;;;;11.23;10.10;;;;;;;34.10;64.18;100817.63;5044841;28;69676;-31
2024/03/01 10:32:23;;;;;;;14.48;9.98;;;;;;;34.07;64.13;100828.16;5049638;28;66336;-31
2024/03/01 10:35:08;;;;;;;15.75;10.02;;;;;;;34.11;63.73;100824.72;5045667;28;70689;-31
2024/03/01 10:38:07;;;;;;;13.45;9.63;;;;;;;33.81;64.38;100811.31;5046909;28;66358;-32
2024/03/01 10:40:54;;;;;;;11.57;10.05;;;;;;;34.02;64.16;100837.88;5049748;28;70038;-32
2024/03/01 10:43:48;;;;;;;11.13;9.60;;;;;;;33.90;64.40;100842.50;5047784;28;67732;-32
2024/03/01 10:46:31;;;;;;;10.25;9.30;;;;;;;33.87;64.38;100829.41;5048465;28;69866;-32
2024/03/01 10:49:13;;;;;;;10.13;9.30;;;;;;;33.69;64.14;100795.03;5047726;28;65486;-33
2024/03/01 10:51:53;;;;;;;11.07;9.95;;;;;;;33.92;63.79;100825.97;5048482;28;70286;-31
2024/03/01 10:54:30;;;;;;;13.30;9.88;;;;;;;33.93;64.49;100839.31;5049619;28;66043;-32
2024/03/01 10:57:08;;;;;;;14.02;10.25;;;;;;;33.93;64.58;100843.94;5050358;28;70050;-33
2024/03/01 10:59:45;;;;;;;12.57;10.20;;;;;;;33.91;64.36;100832.47;5046388;28;65922;-31
2024/03/01 11:02:47;;;;;;;10.50;9.52;;;;;;;33.89;64.73;100846.31;5046812;28;69948;-32
2024/03/01 11:05:24;;;;;;;12.75;10.45;;;;;;;33.92;64.22;100847.72;5048433;28;67034;-31
2024/03/01 11:07:57;;;;;;;11.57;9.73;;;;;;;33.90;64.25;100844.41;5051095;28;69949;-32
2024/03/01 11:10:55;;;;;;;16.15;9.80;;;;;;;33.68;65.24;100830.63;5049786;28;65343;-32
2024/03/01 11:13:28;;;;;;;14.48;8.70;;;;;;;33.83;64.82;100865.50;5046292;28;69773;-34
2024/03/01 11:16:02;;;;;;;11.27;9.32;;;;;;;33.63;64.92;100828.66;5056351;27;65859;-32
2024/03/01 11:18:38;;;;;;;13.48;8.73;;;;;;;33.62;64.97;100837.88;5052668;28;69438;-34
2024/03/01 11:21:11;;;;;;;12.35;8.38;;;;;;;33.60;64.63;100829.16;5046260;28;66355;-35
2024/03/01 11:24:25;;;;;;;11.32;8.80;;;;;;;33.73;65.15;100861.50;5045838;28;69953;-32
2024/03/01 11:26:59;;;;;;;9.95;8.93;;;;;;;33.73;65.15;100860.66;5020623;28;66872;-31
2024/03/01 11:29:45;;;;;;;18.10;8.95;;;;;;;33.67;65.39;100859.75;5047212;28;70036;-31
2024/03/01 11:32:24;;;;;;;10.13;8.05;;;;;;;33.52;65.84;100845.81;5046810;28;66712;-34
2024/03/01 11:35:16;;;;;;;9.48;8.52;;;;;;;33.71;65.27;100866.38;5044329;28;69818;-33
2024/03/01 11:38:10;;;;;;;12.60;8.40;;;;;;;33.65;65.88;100878.19;5051372;28;66408;-36
2024/03/01 11:40:49;;;;;;;9.55;8.63;;;;;;;33.66;65.76;100874.41;5041027;28;70334;-33
2024/03/01 11:43:38;;;;;;;13.88;8.00;;;;;;;33.65;65.55;100875.47;5042028;28;66150;-31
2024/03/01 11:46:23;;;;;;;15.98;8.70;;;;;;;33.63;65.68;100871.31;5043285;28;70243;-33
2024/03/01 11:49:17;;;;;;;13.55;9.07;;;;;;;33.58;65.66;100880.22;5043699;28;67040;-35
2024/03/01 11:51:57;;;;;;;14.73;9.70;;;;;;;33.58;66.00;100880.22;5045450;28;70564;-32